createdAt,value
2018-08-22T00:00:38.096Z,5.70
2018-08-22T00:03:06.874Z,5.37
2018-08-22T00:05:35.305Z,5.27
2018-08-22T00:08:03.855Z,4.60
2018-08-22T00:10:32.359Z,6.00
2018-08-22T00:13:00.903Z,4.47
2018-08-22T00:15:29.404Z,4.83
2018-08-22T00:17:57.973Z,4.33
2018-08-22T00:20:26.347Z,4.97
2018-08-22T00:22:54.892Z,3.90
2018-08-22T00:25:23.351Z,4.27
2018-08-22T00:27:51.759Z,4.20
2018-08-22T00:30:20.155Z,4.07
2018-08-22T00:32:48.657Z,4.10
2018-08-22T00:35:17.159Z,4.57
2018-08-22T00:37:45.615Z,4.90
2018-08-22T00:40:14.152Z,4.90
2018-08-22T00:42:42.670Z,4.80
2018-08-22T00:45:11.138Z,5.20
2018-08-22T00:47:39.542Z,5.07
2018-08-22T00:50:08.051Z,5.17
2018-08-22T00:52:36.633Z,4.90
2018-08-22T00:55:05.087Z,5.40
2018-08-22T00:57:33.611Z,5.57
2018-08-22T01:00:02.135Z,5.27
2018-08-22T01:02:30.664Z,5.63
2018-08-22T01:04:59.144Z,5.73
2018-08-22T01:07:27.633Z,5.60
2018-08-22T01:09:56.093Z,5.73
2018-08-22T01:12:24.595Z,6.03
2018-08-22T01:14:53.166Z,5.80
2018-08-22T01:17:21.710Z,5.90
2018-08-22T01:19:50.185Z,5.60
2018-08-22T01:22:18.676Z,6.70
2018-08-22T01:24:47.287Z,6.30
2018-08-22T01:27:22.335Z,5.47
2018-08-22T01:29:53.579Z,5.47
2018-08-22T01:32:22.665Z,6.13
2018-08-22T01:34:51.878Z,5.97
2018-08-22T01:37:20.363Z,5.33
2018-08-22T01:39:49.386Z,5.67
2018-08-22T01:42:18.474Z,5.50
2018-08-22T01:44:47.183Z,5.93
2018-08-22T01:47:16.016Z,5.70
2018-08-22T01:49:44.574Z,5.83
2018-08-22T01:52:13.133Z,6.10
2018-08-22T01:54:41.637Z,5.70
2018-08-22T01:57:10.179Z,5.60
2018-08-22T01:59:38.596Z,5.87
2018-08-22T02:02:07.226Z,6.10
2018-08-22T02:04:35.744Z,5.53
2018-08-22T02:07:04.257Z,5.70
2018-08-22T02:09:32.807Z,5.57
2018-08-22T02:12:01.230Z,5.40
2018-08-22T02:14:29.675Z,4.93
2018-08-22T02:16:58.103Z,5.30
2018-08-22T02:19:26.607Z,5.37
2018-08-22T02:21:55.100Z,4.80
2018-08-22T02:24:23.532Z,4.87
2018-08-22T02:26:51.903Z,4.40
2018-08-22T02:29:21.078Z,4.50
2018-08-22T02:31:49.815Z,4.53
2018-08-22T02:34:18.272Z,4.40
2018-08-22T02:36:46.775Z,4.10
2018-08-22T02:39:15.236Z,4.10
2018-08-22T02:41:43.711Z,3.70
2018-08-22T02:44:12.260Z,3.73
2018-08-22T02:46:40.697Z,3.90
2018-08-22T02:49:13.490Z,4.43
2018-08-22T02:51:41.991Z,4.40
2018-08-22T02:54:10.506Z,4.30
2018-08-22T02:56:39.035Z,3.80
2018-08-22T02:59:07.408Z,4.10
2018-08-22T03:01:35.840Z,4.20
2018-08-22T03:04:04.229Z,4.10
2018-08-22T03:06:32.702Z,3.63
2018-08-22T03:09:01.273Z,4.03
2018-08-22T03:11:29.751Z,4.03
2018-08-22T03:13:58.144Z,4.23
2018-08-22T03:16:26.745Z,4.10
2018-08-22T03:18:55.184Z,4.10
2018-08-22T03:21:23.632Z,4.53
2018-08-22T03:23:52.130Z,4.13
2018-08-22T03:26:20.528Z,4.23
2018-08-22T03:28:49.088Z,4.23
2018-08-22T03:31:17.543Z,4.77
2018-08-22T03:33:46.037Z,5.50
2018-08-22T03:36:14.524Z,5.63
2018-08-22T03:38:45.862Z,4.80
2018-08-22T03:41:14.351Z,5.00
2018-08-22T03:43:42.831Z,5.57
2018-08-22T03:46:11.343Z,5.33
2018-08-22T03:48:39.927Z,6.97
2018-08-22T03:51:08.432Z,6.60
2018-08-22T03:53:36.805Z,7.00
2018-08-22T03:56:05.314Z,7.27
2018-08-22T03:58:33.865Z,6.60
2018-08-22T04:01:02.359Z,7.17
2018-08-22T04:03:30.757Z,7.33
2018-08-22T04:05:59.218Z,8.17
2018-08-22T04:08:27.680Z,7.70
2018-08-22T04:10:56.098Z,7.47
2018-08-22T04:13:24.624Z,6.53
2018-08-22T04:15:53.056Z,7.27
2018-08-22T04:18:21.519Z,6.37
2018-08-22T04:20:49.923Z,7.10
2018-08-22T04:23:18.549Z,6.33
2018-08-22T04:25:47.027Z,7.50
2018-08-22T04:28:15.439Z,8.70
2018-08-22T04:30:43.891Z,8.83
2018-08-22T04:33:12.327Z,9.10
2018-08-22T04:35:40.860Z,9.80
2018-08-22T04:38:09.239Z,9.33
2018-08-22T04:40:38.023Z,8.97
2018-08-22T04:43:06.468Z,9.20
2018-08-22T04:45:34.921Z,8.93
2018-08-22T04:48:03.400Z,10.00
2018-08-22T04:50:31.992Z,9.33
2018-08-22T04:53:00.592Z,8.77
2018-08-22T04:55:28.990Z,8.40
2018-08-22T04:57:57.641Z,9.57
2018-08-22T05:00:26.196Z,10.17
2018-08-22T05:02:54.685Z,9.17
2018-08-22T05:05:23.276Z,7.77
2018-08-22T05:07:51.677Z,8.13
2018-08-22T05:10:20.283Z,8.10
2018-08-22T05:12:48.720Z,7.80
2018-08-22T05:15:17.181Z,7.10
2018-08-22T05:17:45.679Z,7.10
2018-08-22T05:20:14.075Z,6.80
2018-08-22T05:22:42.563Z,6.50
2018-08-22T05:25:10.944Z,6.47
2018-08-22T05:27:39.403Z,6.80
2018-08-22T05:30:07.871Z,6.53
2018-08-22T05:32:36.285Z,7.10
2018-08-22T05:35:04.873Z,7.77
2018-08-22T05:37:33.337Z,6.50
2018-08-22T05:40:01.799Z,7.00
2018-08-22T05:42:30.240Z,6.90
2018-08-22T05:44:58.660Z,7.67
2018-08-22T05:47:27.203Z,8.20
2018-08-22T05:49:55.692Z,7.43
2018-08-22T05:52:24.259Z,6.53
2018-08-22T05:54:52.745Z,6.97
2018-08-22T05:57:21.286Z,5.97
2018-08-22T05:59:49.747Z,5.03
2018-08-22T06:02:18.225Z,5.53
2018-08-22T06:04:46.667Z,6.33
2018-08-22T06:07:15.241Z,6.03
2018-08-22T06:09:43.667Z,6.50
2018-08-22T06:12:12.171Z,7.53
2018-08-22T06:14:40.664Z,6.47
2018-08-22T06:17:09.141Z,6.47
2018-08-22T06:19:37.607Z,6.17
2018-08-22T06:22:05.998Z,5.83
2018-08-22T06:24:34.428Z,6.00
2018-08-22T06:27:02.856Z,5.60
2018-08-22T06:29:31.387Z,5.90
2018-08-22T06:31:59.850Z,6.63
2018-08-22T06:34:28.313Z,6.47
2018-08-22T06:36:56.808Z,7.60
2018-08-22T06:39:25.427Z,5.60
2018-08-22T06:41:53.954Z,6.23
2018-08-22T06:44:22.542Z,6.00
2018-08-22T06:46:50.963Z,5.73
2018-08-22T06:49:19.484Z,6.00
2018-08-22T06:51:47.972Z,5.70
2018-08-22T06:54:16.556Z,6.07
2018-08-22T06:56:45.026Z,6.07
2018-08-22T06:59:13.468Z,6.43
2018-08-22T07:01:41.952Z,6.00
2018-08-22T07:04:10.429Z,5.87
2018-08-22T07:06:38.923Z,5.87
2018-08-22T07:09:10.006Z,5.87
2018-08-22T07:11:38.505Z,6.17
2018-08-22T07:14:07.275Z,5.83
2018-08-22T07:16:35.741Z,5.73
2018-08-22T07:19:04.285Z,5.90
2018-08-22T07:21:32.888Z,5.40
2018-08-22T07:24:01.347Z,5.50
2018-08-22T07:26:30.137Z,5.63
2018-08-22T07:28:58.613Z,5.80
2018-08-22T07:31:27.127Z,6.10
2018-08-22T07:33:56.425Z,5.80
2018-08-22T07:36:24.908Z,5.47
2018-08-22T07:38:53.409Z,6.00
2018-08-22T07:41:22.007Z,5.80
2018-08-22T07:43:50.444Z,6.17
2018-08-22T07:46:18.919Z,5.27
2018-08-22T07:48:47.436Z,6.30
2018-08-22T07:51:15.889Z,5.40
2018-08-22T07:53:44.331Z,5.60
2018-08-22T07:56:12.823Z,5.17
2018-08-22T07:58:41.363Z,5.20
2018-08-22T08:01:09.890Z,4.40
2018-08-22T08:03:38.384Z,4.30
2018-08-22T08:06:06.974Z,4.73
2018-08-22T08:08:35.524Z,4.77
2018-08-22T08:11:04.033Z,4.60
2018-08-22T08:13:33.404Z,4.20
2018-08-22T08:16:01.875Z,5.37
2018-08-22T08:18:30.300Z,4.90
2018-08-22T08:20:58.752Z,5.13
2018-08-22T08:23:27.165Z,4.10
2018-08-22T08:25:55.716Z,4.00
2018-08-22T08:28:24.181Z,4.07
2018-08-22T08:30:52.590Z,4.00
2018-08-22T08:33:21.047Z,3.80
2018-08-22T08:35:49.441Z,4.27
2018-08-22T08:38:17.946Z,4.30
2018-08-22T08:40:46.446Z,4.03
2018-08-22T08:43:14.979Z,3.20
2018-08-22T08:45:43.518Z,3.57
2018-08-22T08:48:12.034Z,3.37
2018-08-22T08:50:40.654Z,3.50
2018-08-22T08:53:09.141Z,3.30
2018-08-22T08:55:37.663Z,3.40
2018-08-22T08:58:07.092Z,3.00
2018-08-22T09:00:35.564Z,3.30
2018-08-22T09:03:04.109Z,3.57
2018-08-22T09:05:32.577Z,3.33
2018-08-22T09:08:01.006Z,2.97
2018-08-22T09:10:29.587Z,3.50
2018-08-22T09:12:58.085Z,3.30
2018-08-22T09:15:26.546Z,3.08
2018-08-22T09:17:55.024Z,2.98
2018-08-22T09:20:23.462Z,4.00
2018-08-22T09:22:51.936Z,3.77
2018-08-22T09:25:20.375Z,4.00
2018-08-22T09:27:48.872Z,3.30
2018-08-22T09:30:17.322Z,3.02
2018-08-22T09:32:46.483Z,3.17
2018-08-22T09:35:15.304Z,3.25
2018-08-22T09:37:43.775Z,3.05
2018-08-22T09:40:12.495Z,2.83
2018-08-22T09:42:41.356Z,2.90
2018-08-22T09:45:09.945Z,3.58
2018-08-22T09:47:38.952Z,3.52
2018-08-22T09:50:07.554Z,3.02
2018-08-22T09:52:36.168Z,3.47
2018-08-22T09:55:06.092Z,3.75
2018-08-22T09:57:34.533Z,4.03
2018-08-22T10:00:03.154Z,3.50
2018-08-22T10:02:31.593Z,3.55
2018-08-22T10:05:00.237Z,3.90
2018-08-22T10:07:28.761Z,3.50
2018-08-22T10:09:57.239Z,3.65
2018-08-22T10:12:25.622Z,3.83
2018-08-22T10:14:54.063Z,4.00
2018-08-22T10:17:22.636Z,3.55
2018-08-22T10:19:51.055Z,4.50
2018-08-22T10:22:19.532Z,5.67
2018-08-22T10:24:48.059Z,3.83
2018-08-22T10:27:16.494Z,4.70
2018-08-22T10:29:45.060Z,3.87
2018-08-22T10:32:13.873Z,3.70
2018-08-22T10:34:42.368Z,3.77
2018-08-22T10:37:10.852Z,3.05
2018-08-22T10:39:39.375Z,3.62
2018-08-22T10:42:08.705Z,3.05
2018-08-22T10:44:37.207Z,3.45
2018-08-22T10:47:05.628Z,3.37
2018-08-22T10:49:34.336Z,4.10
2018-08-22T10:52:02.792Z,3.20
2018-08-22T10:54:31.302Z,3.80
2018-08-22T10:56:59.869Z,4.08
2018-08-22T10:59:28.408Z,3.20
2018-08-22T11:01:56.919Z,4.10
2018-08-22T11:04:25.468Z,4.22
2018-08-22T11:06:54.077Z,3.98
2018-08-22T11:09:22.556Z,4.22
2018-08-22T11:11:52.094Z,3.80
2018-08-22T11:14:21.226Z,3.55
2018-08-22T11:16:50.428Z,3.75
2018-08-22T11:19:21.786Z,4.40
2018-08-22T11:22:01.732Z,4.22
2018-08-22T11:24:41.464Z,3.90
2018-08-22T11:27:21.822Z,4.25
2018-08-22T11:30:01.548Z,4.00
2018-08-22T11:32:42.165Z,3.55
2018-08-22T11:35:12.603Z,4.33
2018-08-22T11:37:41.059Z,3.75
2018-08-22T11:40:09.818Z,3.60
2018-08-22T11:42:38.283Z,4.00
2018-08-22T11:45:06.807Z,3.80
2018-08-22T11:47:35.269Z,4.00
2018-08-22T11:50:03.713Z,3.70
2018-08-22T11:52:32.208Z,3.35
2018-08-22T11:55:00.672Z,3.58
2018-08-22T11:57:29.836Z,3.83
2018-08-22T11:59:58.257Z,3.60
2018-08-22T12:02:27.712Z,3.40
2018-08-22T12:04:57.348Z,3.15
2018-08-22T12:07:25.800Z,3.00
2018-08-22T12:09:55.613Z,3.25
2018-08-22T12:12:24.121Z,2.98
2018-08-22T12:14:52.721Z,3.47
2018-08-22T12:17:21.213Z,3.15
2018-08-22T12:19:49.753Z,3.42
2018-08-22T12:22:18.532Z,3.30
2018-08-22T12:24:47.075Z,2.90
2018-08-22T12:27:15.465Z,2.77
2018-08-22T12:29:43.969Z,3.00
2018-08-22T12:32:12.468Z,3.00
2018-08-22T12:34:40.893Z,3.10
2018-08-22T12:37:09.432Z,2.65
2018-08-22T12:39:37.912Z,3.58
2018-08-22T12:42:06.409Z,2.60
2018-08-22T12:44:35.028Z,3.67
2018-08-22T12:47:03.398Z,2.37
2018-08-22T12:49:31.893Z,2.30
2018-08-22T12:52:00.495Z,2.37
2018-08-22T12:54:29.052Z,2.85
2018-08-22T12:56:57.608Z,2.77
2018-08-22T12:59:26.136Z,2.20
2018-08-22T13:01:54.691Z,2.90
2018-08-22T13:04:23.296Z,3.00
2018-08-22T13:06:52.801Z,2.67
2018-08-22T13:09:21.363Z,2.70
2018-08-22T13:11:50.044Z,2.65
2018-08-22T13:14:18.624Z,3.12
2018-08-22T13:16:47.175Z,3.08
2018-08-22T13:19:15.716Z,3.17
2018-08-22T13:21:44.299Z,2.90
2018-08-22T13:24:12.804Z,2.92
2018-08-22T13:26:41.270Z,3.02
2018-08-22T13:29:11.255Z,2.85
2018-08-22T13:31:40.930Z,2.67
2018-08-22T13:34:09.450Z,2.83
2018-08-22T13:36:37.891Z,3.10
2018-08-22T13:39:08.573Z,2.55
2018-08-22T13:41:36.983Z,2.55
2018-08-22T13:44:05.451Z,3.00
2018-08-22T13:46:35.092Z,3.65
2018-08-22T13:49:03.599Z,2.65
2018-08-22T13:51:34.400Z,2.35
2018-08-22T13:54:02.922Z,2.25
2018-08-22T13:56:31.568Z,2.40
2018-08-22T13:59:00.106Z,2.25
2018-08-22T14:01:28.720Z,2.30
2018-08-22T14:03:57.237Z,2.10
2018-08-22T14:06:26.648Z,2.30
2018-08-22T14:08:55.134Z,2.25
2018-08-22T14:11:23.806Z,2.37
2018-08-22T14:13:52.235Z,2.30
2018-08-22T14:16:20.730Z,1.85
2018-08-22T14:18:49.229Z,2.22
2018-08-22T14:21:18.197Z,1.92
2018-08-22T14:23:46.695Z,2.12
2018-08-22T14:26:15.206Z,2.27
2018-08-22T14:28:43.730Z,2.45
2018-08-22T14:31:12.962Z,2.45
2018-08-22T14:33:41.509Z,2.10
2018-08-22T14:36:09.973Z,2.00
2018-08-22T14:38:38.877Z,2.05
2018-08-22T14:41:07.348Z,1.90
2018-08-22T14:43:36.009Z,2.15
2018-08-22T14:46:04.576Z,2.20
2018-08-22T14:48:33.066Z,2.20
2018-08-22T14:51:01.693Z,2.12
2018-08-22T14:53:30.180Z,2.15
2018-08-22T14:55:58.751Z,2.65
2018-08-22T14:58:27.161Z,2.25
2018-08-22T15:00:55.807Z,2.20
2018-08-22T15:03:25.013Z,2.10
2018-08-22T15:05:53.179Z,1.92
2018-08-22T15:08:22.042Z,2.45
2018-08-22T15:10:50.761Z,2.58
2018-08-22T15:13:19.293Z,4.20
2018-08-22T15:15:47.904Z,6.75
2018-08-22T15:18:16.718Z,4.83
2018-08-22T15:20:45.611Z,5.40
2018-08-22T15:23:14.680Z,8.43
2018-08-22T15:25:43.528Z,4.75
2018-08-22T15:28:12.482Z,4.17
2018-08-22T15:30:42.638Z,3.27
2018-08-22T15:33:12.603Z,2.77
2018-08-22T15:35:41.668Z,2.75
2018-08-22T15:38:10.260Z,2.52
2018-08-22T15:40:38.670Z,3.00
2018-08-22T15:43:07.708Z,2.70
2018-08-22T15:45:36.284Z,2.45
2018-08-22T15:48:05.276Z,2.37
2018-08-22T15:50:33.756Z,2.10
2018-08-22T15:53:03.223Z,3.08
2018-08-22T15:55:31.701Z,3.10
2018-08-22T15:58:03.693Z,3.60
2018-08-22T16:00:43.892Z,2.80
2018-08-22T16:03:13.383Z,2.85
2018-08-22T16:05:42.884Z,3.08
2018-08-22T16:08:12.220Z,3.27
2018-08-22T16:10:40.813Z,3.40
2018-08-22T16:13:16.425Z,3.30
2018-08-22T16:15:45.569Z,2.80
2018-08-22T16:18:14.080Z,2.92
2018-08-22T16:20:53.351Z,3.00
2018-08-22T16:23:23.620Z,3.40
2018-08-22T16:25:53.020Z,3.20
2018-08-22T16:28:21.851Z,4.17
2018-08-22T16:30:57.041Z,7.07
2018-08-22T16:33:20.913Z,4.13
2018-08-22T16:35:50.273Z,4.57
2018-08-22T16:38:19.347Z,3.40
2018-08-22T16:40:50.011Z,3.60
2018-08-22T16:43:35.079Z,2.53
2018-08-22T16:46:08.140Z,2.90
2018-08-22T16:48:37.658Z,3.17
2018-08-22T16:51:06.253Z,3.20
2018-08-22T16:53:35.978Z,3.30
2018-08-22T16:56:04.507Z,2.80
2018-08-22T16:58:33.255Z,2.90
2018-08-22T17:01:01.686Z,3.23
2018-08-22T17:03:30.230Z,3.13
2018-08-22T17:06:03.841Z,2.83
2018-08-22T17:08:32.427Z,2.70
2018-08-22T17:11:03.039Z,2.50
2018-08-22T17:13:48.952Z,2.70
2018-08-22T17:16:17.767Z,3.03
2018-08-22T17:18:46.236Z,2.60
2018-08-22T17:21:14.726Z,3.20
2018-08-22T17:23:44.620Z,2.87
2018-08-22T17:26:18.305Z,2.70
2018-08-22T17:28:53.166Z,2.40
2018-08-22T17:31:25.019Z,3.03
2018-08-22T17:33:57.168Z,2.97
2018-08-22T17:36:25.818Z,2.63
2018-08-22T17:38:57.696Z,2.30
2018-08-22T17:41:27.715Z,2.70
2018-08-22T17:44:04.643Z,2.87
2018-08-22T17:46:34.701Z,3.00
2018-08-22T17:49:03.272Z,2.87
2018-08-22T17:51:34.268Z,3.13
2018-08-22T17:54:02.790Z,2.97
2018-08-22T17:56:33.229Z,3.20
2018-08-22T17:59:01.698Z,3.07
2018-08-22T18:01:31.007Z,3.60
2018-08-22T18:04:02.054Z,3.40
2018-08-22T18:06:30.624Z,3.43
2018-08-22T18:08:59.124Z,3.40
2018-08-22T18:11:27.783Z,3.67
2018-08-22T18:13:57.388Z,3.27
2018-08-22T18:16:25.856Z,3.20
2018-08-22T18:18:54.318Z,3.57
2018-08-22T18:21:22.787Z,3.70
2018-08-22T18:23:56.517Z,3.43
2018-08-22T18:26:26.261Z,3.20
2018-08-22T18:28:54.679Z,2.90
2018-08-22T18:31:23.197Z,2.60
2018-08-22T18:34:00.168Z,2.90
2018-08-22T18:36:29.605Z,2.90
2018-08-22T18:39:14.891Z,3.80
2018-08-22T18:41:43.615Z,3.77
2018-08-22T18:44:15.767Z,3.70
2018-08-22T18:46:44.217Z,3.27
2018-08-22T18:49:12.869Z,4.13
2018-08-22T18:51:41.404Z,3.00
2018-08-22T18:54:10.515Z,4.20
2018-08-22T18:56:38.983Z,4.37
2018-08-22T18:59:18.802Z,4.13
2018-08-22T19:01:47.282Z,3.73
2018-08-22T19:04:17.560Z,4.00
2018-08-22T19:06:45.987Z,4.00
2018-08-22T19:09:14.476Z,4.60
2018-08-22T19:11:42.888Z,4.23
2018-08-22T19:14:12.492Z,3.90
2018-08-22T19:16:40.987Z,3.60
2018-08-22T19:19:11.206Z,3.57
2018-08-22T19:21:39.657Z,3.90
2018-08-22T19:24:08.071Z,3.90
2018-08-22T19:26:36.451Z,4.63
2018-08-22T19:29:05.490Z,4.20
2018-08-22T19:31:34.156Z,4.10
2018-08-22T19:34:02.585Z,4.40
2018-08-22T19:36:31.036Z,4.07
2018-08-22T19:38:59.456Z,4.17
2018-08-22T19:41:31.814Z,4.00
2018-08-22T19:44:00.216Z,3.80
2018-08-22T19:46:28.601Z,4.10
2018-08-22T19:48:57.051Z,4.50
2018-08-22T19:51:25.439Z,4.33
2018-08-22T19:54:08.011Z,4.10
2018-08-22T19:56:36.467Z,4.17
2018-08-22T19:59:05.328Z,3.60
2018-08-22T20:01:36.099Z,3.67
2018-08-22T20:04:04.531Z,3.97
2018-08-22T20:06:32.984Z,3.90
2018-08-22T20:09:01.772Z,3.47
2018-08-22T20:11:32.622Z,3.80
2018-08-22T20:14:03.605Z,3.83
2018-08-22T20:16:32.113Z,3.93
2018-08-22T20:19:02.737Z,3.77
2018-08-22T20:21:33.322Z,4.03
2018-08-22T20:24:02.823Z,4.23
2018-08-22T20:26:31.759Z,4.37
2018-08-22T20:29:01.477Z,4.70
2018-08-22T20:31:30.307Z,4.10
2018-08-22T20:34:03.888Z,4.70
2018-08-22T20:36:32.570Z,4.00
2018-08-22T20:39:05.604Z,4.00
2018-08-22T20:41:35.880Z,4.23
2018-08-22T20:44:07.695Z,4.37
2018-08-22T20:46:36.192Z,4.53
2018-08-22T20:49:04.821Z,4.23
2018-08-22T20:51:33.693Z,4.47
2018-08-22T20:54:08.553Z,4.40
2018-08-22T20:56:39.901Z,4.13
2018-08-22T20:59:08.319Z,4.13
2018-08-22T21:01:36.830Z,4.53
2018-08-22T21:04:05.256Z,4.20
2018-08-22T21:06:33.783Z,4.20
2018-08-22T21:09:02.325Z,4.57
2018-08-22T21:11:30.836Z,5.17
2018-08-22T21:13:59.290Z,5.23
2018-08-22T21:16:27.805Z,3.83
2018-08-22T21:18:56.414Z,5.03
2018-08-22T21:21:25.155Z,5.17
2018-08-22T21:23:53.636Z,5.03
2018-08-22T21:26:35.307Z,5.50
2018-08-22T21:29:04.107Z,4.80
2018-08-22T21:31:33.590Z,4.93
2018-08-22T21:34:23.747Z,5.30
2018-08-22T21:36:52.170Z,5.30
2018-08-22T21:39:26.874Z,4.67
2018-08-22T21:41:55.452Z,4.03
2018-08-22T21:44:24.498Z,4.37
2018-08-22T21:47:01.022Z,3.93
2018-08-22T21:49:29.960Z,4.73
2018-08-22T21:52:01.360Z,4.17
2018-08-22T21:54:29.879Z,4.30
2018-08-22T21:56:58.249Z,5.90
2018-08-22T21:59:26.774Z,5.00
2018-08-22T22:02:00.726Z,5.23
2018-08-22T22:04:37.215Z,5.10
2018-08-22T22:07:06.692Z,4.63
2018-08-22T22:09:35.939Z,4.53
2018-08-22T22:12:04.897Z,5.07
2018-08-22T22:14:34.392Z,5.07
2018-08-22T22:17:03.596Z,4.40
2018-08-22T22:19:34.560Z,4.23
2018-08-22T22:22:03.604Z,4.33
2018-08-22T22:24:32.132Z,4.07
2018-08-22T22:27:00.807Z,4.50
2018-08-22T22:29:31.572Z,5.30
2018-08-22T22:31:59.967Z,4.43
2018-08-22T22:34:28.636Z,4.40
2018-08-22T22:36:57.093Z,4.20
2018-08-22T22:39:38.157Z,4.53
2018-08-22T22:42:11.490Z,4.10
2018-08-22T22:44:40.414Z,3.87
2018-08-22T22:47:13.009Z,3.97
2018-08-22T22:49:41.500Z,3.50
2018-08-22T22:52:22.936Z,3.27
2018-08-22T22:54:53.696Z,4.07
2018-08-22T22:57:22.613Z,4.40
2018-08-22T22:59:51.294Z,4.97
2018-08-22T23:02:22.660Z,5.10
2018-08-22T23:04:52.032Z,4.23
2018-08-22T23:07:31.835Z,5.07
2018-08-22T23:10:01.504Z,5.60
2018-08-22T23:13:00.728Z,4.90
2018-08-22T23:15:30.274Z,5.27
2018-08-22T23:18:00.028Z,4.80
2018-08-22T23:20:37.060Z,5.13
2018-08-22T23:23:16.560Z,3.90
2018-08-22T23:25:45.239Z,4.40
2018-08-22T23:28:13.701Z,4.10
2018-08-22T23:30:42.166Z,4.93
2018-08-22T23:33:10.541Z,5.83
2018-08-22T23:35:38.971Z,5.07
2018-08-22T23:38:16.808Z,5.70
2018-08-22T23:40:46.570Z,5.67
2018-08-22T23:43:15.064Z,5.70
2018-08-22T23:45:50.712Z,4.83
2018-08-22T23:48:24.708Z,5.37
2018-08-22T23:50:57.003Z,5.77
2018-08-22T23:53:27.668Z,5.53
2018-08-22T23:56:10.064Z,6.17
2018-08-22T23:58:39.167Z,6.13
